SEZ weather

Seychelles International Airport
Mahe Island, Pointe La Rue, Seychelles

Public forecast

Using degrees Celsius for public forecast. Weather courtesy of forecast.io.

METAR (pilot weather report)

Retrieved 2019/04/23 22:00 UTC (27 minutes ago):

FSIA 232200Z VRB02KT 9999 BKN021 BKN027 29/25 Q1010 NOSIG

TAF (pilot weather forecast)

Retrieved 2019/04/23 18:12 UTC (4 hours ago):

TAF FSIA 231701Z 2318/2418 34005KT 9999 FEW025